ENVA/TRD METAR and TAF weather

Enter ICAO airport designator
Station Type Date Time Source
ENVA METAR 2018/07/21 11:20 UTC NOAA

ENVA 211120Z 26007KT 9999 FEW020 BKN033 19/14 Q1008 TEMPO TSRA BKN025CB RMK WIND 670FT 30007KT


Station Type Date Time Source
ENVA Decoded METAR 2018/07/21 11:20 UTC NOAA

Trondheim / Vaernes, Norway (ENVA) 63-28N 010-56E 17M
Jul 21, 2018 - 07:20 AM EDT / 2018.07.21 1120 UTC
Wind: from the W (260 degrees) at 8 MPH (7 KT):0
Visibility: greater than 7 mile(s):0
Sky conditions: mostly cloudy
Weather: Cumulonimbus clouds observed
Temperature: 66 F (19 C)
Dew Point: 57 F (14 C)
Relative Humidity: 72%
Pressure (altimeter): 29.77 in. Hg (1008 hPa)
ob: ENVA 211120Z 26007KT 9999 FEW020 BKN033 19/14 Q1008 TEMPO TSRA BKN025CB RMK WIND 670FT 30007KT
cycle: 11

Station Type Date Time Source
ENVA TAF 2018/07/21 07:51 UTC NOAA

TAF
AMD TAF
AMD ENVA 210743Z 2107/2206 VRB05KT 9999 FEW015 SCT030TCU PROB40
TEMPO 2107/2119 TSRA BKN030CB
BECMG 2108/2110 27012KT
BECMG 2119/2121 VRB05KT


Example: see airport list